sensor_id;sensor_type;location;lat;lon;timestamp;pressure;altitude;pressure_sealevel;temperature
75811;BMP280;64449;50.016;19.954;2022-10-31T00:01:35;99147.30;;;14.80
75811;BMP280;64449;50.016;19.954;2022-10-31T00:04:01;99150.55;;;14.75
75811;BMP280;64449;50.016;19.954;2022-10-31T00:06:27;99146.19;;;14.71
75811;BMP280;64449;50.016;19.954;2022-10-31T00:08:55;99150.02;;;14.69
75811;BMP280;64449;50.016;19.954;2022-10-31T00:11:21;99150.34;;;14.64
75811;BMP280;64449;50.016;19.954;2022-10-31T00:13:47;99154.38;;;14.62
75811;BMP280;64449;50.016;19.954;2022-10-31T00:16:17;99153.86;;;14.63
75811;BMP280;64449;50.016;19.954;2022-10-31T00:18:42;99151.33;;;14.61
75811;BMP280;64449;50.016;19.954;2022-10-31T00:21:08;99152.89;;;14.59
75811;BMP280;64449;50.016;19.954;2022-10-31T00:23:34;99153.81;;;14.58
75811;BMP280;64449;50.016;19.954;2022-10-31T00:26:01;99155.08;;;14.57
75811;BMP280;64449;50.016;19.954;2022-10-31T00:28:27;99152.46;;;14.55
75811;BMP280;64449;50.016;19.954;2022-10-31T00:30:52;99156.69;;;14.51
75811;BMP280;64449;50.016;19.954;2022-10-31T00:33:18;99157.98;;;14.48
75811;BMP280;64449;50.016;19.954;2022-10-31T00:35:49;99157.64;;;14.44
75811;BMP280;64449;50.016;19.954;2022-10-31T00:38:14;99156.20;;;14.42
75811;BMP280;64449;50.016;19.954;2022-10-31T00:40:40;99157.33;;;14.38
75811;BMP280;64449;50.016;19.954;2022-10-31T00:43:05;99155.42;;;14.36
75811;BMP280;64449;50.016;19.954;2022-10-31T00:45:30;99156.91;;;14.34
75811;BMP280;64449;50.016;19.954;2022-10-31T00:47:56;99157.68;;;14.32
75811;BMP280;64449;50.016;19.954;2022-10-31T00:50:21;99158.35;;;14.27
75811;BMP280;64449;50.016;19.954;2022-10-31T00:52:46;99157.67;;;14.24
75811;BMP280;64449;50.016;19.954;2022-10-31T00:55:12;99160.80;;;14.20
75811;BMP280;64449;50.016;19.954;2022-10-31T00:57:37;99161.91;;;14.18
75811;BMP280;64449;50.016;19.954;2022-10-31T01:00:03;99162.25;;;14.16
75811;BMP280;64449;50.016;19.954;2022-10-31T01:02:29;99162.50;;;14.13
75811;BMP280;64449;50.016;19.954;2022-10-31T01:04:54;99164.41;;;14.09
75811;BMP280;64449;50.016;19.954;2022-10-31T01:07:19;99164.75;;;14.08
75811;BMP280;64449;50.016;19.954;2022-10-31T01:09:45;99162.02;;;14.06
75811;BMP280;64449;50.016;19.954;2022-10-31T01:12:10;99164.19;;;14.03
75811;BMP280;64449;50.016;19.954;2022-10-31T01:14:35;99162.98;;;14.03
75811;BMP280;64449;50.016;19.954;2022-10-31T01:17:01;99161.59;;;14.03
75811;BMP280;64449;50.016;19.954;2022-10-31T01:19:26;99159.08;;;14.01
75811;BMP280;64449;50.016;19.954;2022-10-31T01:21:54;99157.48;;;13.97
75811;BMP280;64449;50.016;19.954;2022-10-31T01:24:20;99157.33;;;13.96
75811;BMP280;64449;50.016;19.954;2022-10-31T01:26:45;99155.08;;;13.92
75811;BMP280;64449;50.016;19.954;2022-10-31T01:29:11;99153.90;;;13.90
75811;BMP280;64449;50.016;19.954;2022-10-31T01:31:38;99151.19;;;13.89
75811;BMP280;64449;50.016;19.954;2022-10-31T01:34:05;99152.48;;;13.90
75811;BMP280;64449;50.016;19.954;2022-10-31T01:36:33;99150.50;;;13.91
75811;BMP280;64449;50.016;19.954;2022-10-31T01:39:01;99149.99;;;13.90
75811;BMP280;64449;50.016;19.954;2022-10-31T01:41:30;99146.52;;;13.86
75811;BMP280;64449;50.016;19.954;2022-10-31T01:44:01;99146.92;;;13.82
75811;BMP280;64449;50.016;19.954;2022-10-31T01:46:39;99143.61;;;13.80
75811;BMP280;64449;50.016;19.954;2022-10-31T01:49:11;99146.05;;;13.82
75811;BMP280;64449;50.016;19.954;2022-10-31T01:51:41;99144.95;;;13.86
75811;BMP280;64449;50.016;19.954;2022-10-31T01:54:12;99145.89;;;13.87
75811;BMP280;64449;50.016;19.954;2022-10-31T01:56:40;99145.96;;;13.85
75811;BMP280;64449;50.016;19.954;2022-10-31T01:59:09;99143.81;;;13.80
75811;BMP280;64449;50.016;19.954;2022-10-31T02:01:37;99144.31;;;13.75
75811;BMP280;64449;50.016;19.954;2022-10-31T02:04:03;99141.90;;;13.71
75811;BMP280;64449;50.016;19.954;2022-10-31T02:06:37;99141.99;;;13.68
75811;BMP280;64449;50.016;19.954;2022-10-31T02:09:05;99142.84;;;13.66
75811;BMP280;64449;50.016;19.954;2022-10-31T02:11:33;99143.39;;;13.64
75811;BMP280;64449;50.016;19.954;2022-10-31T02:14:01;99144.40;;;13.64
75811;BMP280;64449;50.016;19.954;2022-10-31T02:16:27;99146.02;;;13.65
75811;BMP280;64449;50.016;19.954;2022-10-31T02:18:53;99143.02;;;13.61
75811;BMP280;64449;50.016;19.954;2022-10-31T02:32:33;99150.15;;;13.45
75811;BMP280;64449;50.016;19.954;2022-10-31T02:35:11;99149.12;;;13.45
75811;BMP280;64449;50.016;19.954;2022-10-31T02:38:04;99155.01;;;13.44
75811;BMP280;64449;50.016;19.954;2022-10-31T02:40:35;99158.81;;;13.41
75811;BMP280;64449;50.016;19.954;2022-10-31T02:43:19;99161.97;;;13.40
75811;BMP280;64449;50.016;19.954;2022-10-31T02:45:57;99165.69;;;13.39
75811;BMP280;64449;50.016;19.954;2022-10-31T02:48:27;99163.76;;;13.40
75811;BMP280;64449;50.016;19.954;2022-10-31T02:50:59;99163.53;;;13.40
75811;BMP280;64449;50.016;19.954;2022-10-31T02:53:26;99161.36;;;13.42
75811;BMP280;64449;50.016;19.954;2022-10-31T02:55:58;99162.91;;;13.43
75811;BMP280;64449;50.016;19.954;2022-10-31T02:58:26;99165.07;;;13.43
75811;BMP280;64449;50.016;19.954;2022-10-31T03:03:36;99164.65;;;13.40
75811;BMP280;64449;50.016;19.954;2022-10-31T03:06:25;99168.42;;;13.36
75811;BMP280;64449;50.016;19.954;2022-10-31T03:11:25;99167.97;;;13.32
75811;BMP280;64449;50.016;19.954;2022-10-31T03:14:02;99170.66;;;13.32
75811;BMP280;64449;50.016;19.954;2022-10-31T03:16:45;99169.35;;;13.35
75811;BMP280;64449;50.016;19.954;2022-10-31T03:19:19;99169.38;;;13.35
75811;BMP280;64449;50.016;19.954;2022-10-31T03:22:08;99172.18;;;13.34
75811;BMP280;64449;50.016;19.954;2022-10-31T03:24:37;99172.48;;;13.32
75811;BMP280;64449;50.016;19.954;2022-10-31T03:27:05;99173.66;;;13.33
75811;BMP280;64449;50.016;19.954;2022-10-31T03:29:34;99177.02;;;13.34
75811;BMP280;64449;50.016;19.954;2022-10-31T03:32:15;99180.79;;;13.32
75811;BMP280;64449;50.016;19.954;2022-10-31T03:34:43;99183.04;;;13.28
75811;BMP280;64449;50.016;19.954;2022-10-31T03:37:12;99183.39;;;13.21
75811;BMP280;64449;50.016;19.954;2022-10-31T03:39:41;99183.58;;;13.16
75811;BMP280;64449;50.016;19.954;2022-10-31T03:42:15;99185.63;;;13.10
75811;BMP280;64449;50.016;19.954;2022-10-31T03:44:53;99187.30;;;13.06
75811;BMP280;64449;50.016;19.954;2022-10-31T03:47:20;99189.30;;;13.05
75811;BMP280;64449;50.016;19.954;2022-10-31T03:49:46;99189.98;;;13.03
75811;BMP280;64449;50.016;19.954;2022-10-31T03:52:42;99188.81;;;13.04
75811;BMP280;64449;50.016;19.954;2022-10-31T03:55:19;99190.05;;;13.04
75811;BMP280;64449;50.016;19.954;2022-10-31T03:57:52;99188.31;;;13.05
75811;BMP280;64449;50.016;19.954;2022-10-31T04:00:19;99189.88;;;13.05
75811;BMP280;64449;50.016;19.954;2022-10-31T04:02:50;99189.23;;;13.02
75811;BMP280;64449;50.016;19.954;2022-10-31T04:05:18;99192.67;;;13.01
75811;BMP280;64449;50.016;19.954;2022-10-31T04:07:46;99191.42;;;12.99
75811;BMP280;64449;50.016;19.954;2022-10-31T04:10:14;99196.19;;;12.97
75811;BMP280;64449;50.016;19.954;2022-10-31T04:12:43;99191.63;;;12.94
75811;BMP280;64449;50.016;19.954;2022-10-31T04:15:10;99191.24;;;12.89
75811;BMP280;64449;50.016;19.954;2022-10-31T04:17:39;99192.16;;;12.87
75811;BMP280;64449;50.016;19.954;2022-10-31T04:20:06;99189.61;;;12.87
75811;BMP280;64449;50.016;19.954;2022-10-31T04:22:32;99193.34;;;12.86
75811;BMP280;64449;50.016;19.954;2022-10-31T04:24:57;99193.26;;;12.84
75811;BMP280;64449;50.016;19.954;2022-10-31T04:27:22;99198.25;;;12.81
75811;BMP280;64449;50.016;19.954;2022-10-31T04:29:48;99198.03;;;12.80
75811;BMP280;64449;50.016;19.954;2022-10-31T04:32:13;99198.80;;;12.81
75811;BMP280;64449;50.016;19.954;2022-10-31T04:34:39;99200.31;;;12.85
75811;BMP280;64449;50.016;19.954;2022-10-31T04:37:04;99199.80;;;12.87
75811;BMP280;64449;50.016;19.954;2022-10-31T04:39:29;99197.21;;;12.88
75811;BMP280;64449;50.016;19.954;2022-10-31T04:41:55;99197.50;;;12.89
75811;BMP280;64449;50.016;19.954;2022-10-31T04:44:20;99198.41;;;12.91
75811;BMP280;64449;50.016;19.954;2022-10-31T04:46:46;99195.92;;;12.88
75811;BMP280;64449;50.016;19.954;2022-10-31T04:49:11;99195.55;;;12.86
75811;BMP280;64449;50.016;19.954;2022-10-31T04:51:36;99196.51;;;12.84
75811;BMP280;64449;50.016;19.954;2022-10-31T04:54:02;99197.70;;;12.83
75811;BMP280;64449;50.016;19.954;2022-10-31T04:56:27;99196.98;;;12.82
75811;BMP280;64449;50.016;19.954;2022-10-31T04:58:53;99197.34;;;12.78
75811;BMP280;64449;50.016;19.954;2022-10-31T05:01:18;99197.91;;;12.75
75811;BMP280;64449;50.016;19.954;2022-10-31T05:03:44;99198.59;;;12.71
75811;BMP280;64449;50.016;19.954;2022-10-31T05:06:09;99205.98;;;12.68
75811;BMP280;64449;50.016;19.954;2022-10-31T05:08:34;99205.94;;;12.64
75811;BMP280;64449;50.016;19.954;2022-10-31T05:11:01;99203.46;;;12.61
75811;BMP280;64449;50.016;19.954;2022-10-31T05:13:27;99200.77;;;12.58
75811;BMP280;64449;50.016;19.954;2022-10-31T05:15:52;99200.02;;;12.57
75811;BMP280;64449;50.016;19.954;2022-10-31T05:18:18;99201.34;;;12.57
75811;BMP280;64449;50.016;19.954;2022-10-31T05:20:43;99204.08;;;12.56
75811;BMP280;64449;50.016;19.954;2022-10-31T05:23:08;99207.02;;;12.55
75811;BMP280;64449;50.016;19.954;2022-10-31T05:25:34;99209.77;;;12.56
75811;BMP280;64449;50.016;19.954;2022-10-31T05:27:59;99210.83;;;12.57
75811;BMP280;64449;50.016;19.954;2022-10-31T05:30:30;99212.71;;;12.58
75811;BMP280;64449;50.016;19.954;2022-10-31T05:32:56;99215.66;;;12.56
75811;BMP280;64449;50.016;19.954;2022-10-31T05:35:25;99218.20;;;12.54
75811;BMP280;64449;50.016;19.954;2022-10-31T05:37:51;99219.36;;;12.56
75811;BMP280;64449;50.016;19.954;2022-10-31T05:40:18;99219.66;;;12.58
75811;BMP280;64449;50.016;19.954;2022-10-31T05:42:45;99223.72;;;12.59
75811;BMP280;64449;50.016;19.954;2022-10-31T05:45:13;99225.37;;;12.59
75811;BMP280;64449;50.016;19.954;2022-10-31T05:47:39;99227.12;;;12.56
75811;BMP280;64449;50.016;19.954;2022-10-31T05:50:05;99228.65;;;12.52
75811;BMP280;64449;50.016;19.954;2022-10-31T05:52:31;99233.51;;;12.50
75811;BMP280;64449;50.016;19.954;2022-10-31T05:54:57;99237.27;;;12.49
75811;BMP280;64449;50.016;19.954;2022-10-31T05:57:22;99236.79;;;12.46
75811;BMP280;64449;50.016;19.954;2022-10-31T05:59:48;99239.88;;;12.42
75811;BMP280;64449;50.016;19.954;2022-10-31T06:02:13;99241.02;;;12.40
75811;BMP280;64449;50.016;19.954;2022-10-31T06:04:38;99242.90;;;12.36
75811;BMP280;64449;50.016;19.954;2022-10-31T06:07:04;99238.67;;;12.33
75811;BMP280;64449;50.016;19.954;2022-10-31T06:09:29;99241.82;;;12.32
75811;BMP280;64449;50.016;19.954;2022-10-31T06:11:55;99243.23;;;12.26
75811;BMP280;64449;50.016;19.954;2022-10-31T06:14:20;99248.38;;;12.22
75811;BMP280;64449;50.016;19.954;2022-10-31T06:16:45;99250.01;;;12.21
75811;BMP280;64449;50.016;19.954;2022-10-31T06:19:11;99257.52;;;12.24
75811;BMP280;64449;50.016;19.954;2022-10-31T06:21:36;99259.05;;;12.27
75811;BMP280;64449;50.016;19.954;2022-10-31T06:24:01;99265.02;;;12.31
75811;BMP280;64449;50.016;19.954;2022-10-31T06:26:27;99268.17;;;12.34
75811;BMP280;64449;50.016;19.954;2022-10-31T06:28:52;99273.81;;;12.37
75811;BMP280;64449;50.016;19.954;2022-10-31T06:31:17;99273.66;;;12.42
75811;BMP280;64449;50.016;19.954;2022-10-31T06:33:43;99271.16;;;12.48
75811;BMP280;64449;50.016;19.954;2022-10-31T06:36:09;99273.77;;;12.52
75811;BMP280;64449;50.016;19.954;2022-10-31T06:38:35;99274.95;;;12.56
75811;BMP280;64449;50.016;19.954;2022-10-31T06:41:04;99278.40;;;12.59
75811;BMP280;64449;50.016;19.954;2022-10-31T06:43:30;99278.19;;;12.60
75811;BMP280;64449;50.016;19.954;2022-10-31T06:45:56;99283.73;;;12.65
75811;BMP280;64449;50.016;19.954;2022-10-31T06:48:21;99283.31;;;12.65
75811;BMP280;64449;50.016;19.954;2022-10-31T06:50:47;99284.02;;;12.65
75811;BMP280;64449;50.016;19.954;2022-10-31T06:53:13;99283.09;;;12.66
75811;BMP280;64449;50.016;19.954;2022-10-31T06:55:40;99283.39;;;12.67
75811;BMP280;64449;50.016;19.954;2022-10-31T06:58:06;99285.55;;;12.68
75811;BMP280;64449;50.016;19.954;2022-10-31T07:00:32;99286.67;;;12.71
75811;BMP280;64449;50.016;19.954;2022-10-31T07:03:04;99288.58;;;12.73
75811;BMP280;64449;50.016;19.954;2022-10-31T07:05:30;99291.23;;;12.76
75811;BMP280;64449;50.016;19.954;2022-10-31T07:08:00;99289.98;;;12.79
75811;BMP280;64449;50.016;19.954;2022-10-31T07:10:29;99292.61;;;12.84
75811;BMP280;64449;50.016;19.954;2022-10-31T07:12:59;99292.87;;;12.88
75811;BMP280;64449;50.016;19.954;2022-10-31T07:15:26;99296.64;;;12.95
75811;BMP280;64449;50.016;19.954;2022-10-31T07:17:52;99297.49;;;13.02
75811;BMP280;64449;50.016;19.954;2022-10-31T07:20:18;99299.89;;;13.10
75811;BMP280;64449;50.016;19.954;2022-10-31T07:22:43;99300.65;;;13.19
75811;BMP280;64449;50.016;19.954;2022-10-31T07:25:09;99299.34;;;13.29
75811;BMP280;64449;50.016;19.954;2022-10-31T07:27:39;99297.30;;;13.41
75811;BMP280;64449;50.016;19.954;2022-10-31T07:30:06;99299.38;;;13.52
75811;BMP280;64449;50.016;19.954;2022-10-31T07:32:50;99301.31;;;13.62
75811;BMP280;64449;50.016;19.954;2022-10-31T07:35:18;99298.86;;;13.71
75811;BMP280;64449;50.016;19.954;2022-10-31T07:37:44;99297.20;;;13.78
75811;BMP280;64449;50.016;19.954;2022-10-31T07:40:10;99296.23;;;13.84
75811;BMP280;64449;50.016;19.954;2022-10-31T07:42:36;99297.72;;;13.92
75811;BMP280;64449;50.016;19.954;2022-10-31T07:45:04;99295.80;;;14.02
75811;BMP280;64449;50.016;19.954;2022-10-31T07:47:30;99292.80;;;14.13
75811;BMP280;64449;50.016;19.954;2022-10-31T07:50:02;99295.52;;;14.24
75811;BMP280;64449;50.016;19.954;2022-10-31T07:52:28;99297.45;;;14.32
75811;BMP280;64449;50.016;19.954;2022-10-31T07:54:53;99294.39;;;14.39
75811;BMP280;64449;50.016;19.954;2022-10-31T07:57:19;99292.48;;;14.46
75811;BMP280;64449;50.016;19.954;2022-10-31T07:59:44;99295.13;;;14.55
75811;BMP280;64449;50.016;19.954;2022-10-31T08:02:10;99291.14;;;14.64
75811;BMP280;64449;50.016;19.954;2022-10-31T08:04:35;99290.30;;;14.72
75811;BMP280;64449;50.016;19.954;2022-10-31T08:07:00;99290.48;;;14.78
75811;BMP280;64449;50.016;19.954;2022-10-31T08:09:26;99290.42;;;14.85
75811;BMP280;64449;50.016;19.954;2022-10-31T08:11:52;99291.48;;;14.92
75811;BMP280;64449;50.016;19.954;2022-10-31T08:14:18;99298.42;;;15.03
75811;BMP280;64449;50.016;19.954;2022-10-31T08:16:43;99299.94;;;15.13
75811;BMP280;64449;50.016;19.954;2022-10-31T08:19:08;99301.95;;;15.25
75811;BMP280;64449;50.016;19.954;2022-10-31T08:21:34;99303.17;;;15.33
75811;BMP280;64449;50.016;19.954;2022-10-31T08:23:59;99303.13;;;15.41
75811;BMP280;64449;50.016;19.954;2022-10-31T08:26:24;99301.09;;;15.52
75811;BMP280;64449;50.016;19.954;2022-10-31T08:28:50;99299.09;;;15.63
75811;BMP280;64449;50.016;19.954;2022-10-31T08:31:15;99300.41;;;15.74
75811;BMP280;64449;50.016;19.954;2022-10-31T08:33:40;99300.21;;;15.86
75811;BMP280;64449;50.016;19.954;2022-10-31T08:36:06;99298.02;;;15.94
75811;BMP280;64449;50.016;19.954;2022-10-31T08:38:32;99300.45;;;16.02
75811;BMP280;64449;50.016;19.954;2022-10-31T08:40:57;99299.02;;;16.09
75811;BMP280;64449;50.016;19.954;2022-10-31T08:43:22;99302.15;;;16.19
75811;BMP280;64449;50.016;19.954;2022-10-31T08:45:48;99299.54;;;16.29
75811;BMP280;64449;50.016;19.954;2022-10-31T08:48:16;99298.45;;;16.39
75811;BMP280;64449;50.016;19.954;2022-10-31T08:50:43;99295.58;;;16.50
75811;BMP280;64449;50.016;19.954;2022-10-31T08:53:18;99291.71;;;16.60
75811;BMP280;64449;50.016;19.954;2022-10-31T08:55:45;99289.36;;;16.72
75811;BMP280;64449;50.016;19.954;2022-10-31T08:58:14;99288.23;;;16.81
75811;BMP280;64449;50.016;19.954;2022-10-31T09:00:40;99287.45;;;16.90
75811;BMP280;64449;50.016;19.954;2022-10-31T09:03:13;99282.29;;;17.02
75811;BMP280;64449;50.016;19.954;2022-10-31T09:05:39;99279.92;;;17.16
75811;BMP280;64449;50.016;19.954;2022-10-31T09:08:06;99281.27;;;17.26
75811;BMP280;64449;50.016;19.954;2022-10-31T09:10:33;99285.91;;;17.37
75811;BMP280;64449;50.016;19.954;2022-10-31T09:13:05;99280.69;;;17.51
75811;BMP280;64449;50.016;19.954;2022-10-31T09:15:33;99284.45;;;17.65
75811;BMP280;64449;50.016;19.954;2022-10-31T09:17:58;99286.09;;;17.79
75811;BMP280;64449;50.016;19.954;2022-10-31T09:20:24;99280.61;;;17.92
75811;BMP280;64449;50.016;19.954;2022-10-31T09:23:09;99280.92;;;18.05
75811;BMP280;64449;50.016;19.954;2022-10-31T09:25:36;99278.79;;;18.18
75811;BMP280;64449;50.016;19.954;2022-10-31T09:28:03;99276.80;;;18.30
75811;BMP280;64449;50.016;19.954;2022-10-31T09:30:31;99276.89;;;18.45
75811;BMP280;64449;50.016;19.954;2022-10-31T09:32:58;99277.17;;;18.57
75811;BMP280;64449;50.016;19.954;2022-10-31T09:35:24;99279.14;;;18.73
75811;BMP280;64449;50.016;19.954;2022-10-31T09:38:04;99277.35;;;18.89
75811;BMP280;64449;50.016;19.954;2022-10-31T09:43:47;99276.17;;;19.21
75811;BMP280;64449;50.016;19.954;2022-10-31T09:51:49;99282.84;;;19.75
75811;BMP280;64449;50.016;19.954;2022-10-31T09:54:38;99281.68;;;19.91
75811;BMP280;64449;50.016;19.954;2022-10-31T09:57:07;99283.70;;;20.09
75811;BMP280;64449;50.016;19.954;2022-10-31T09:59:39;99286.86;;;20.26
75811;BMP280;64449;50.016;19.954;2022-10-31T10:02:15;99282.45;;;20.41
75811;BMP280;64449;50.016;19.954;2022-10-31T10:10:21;99286.16;;;20.87
75811;BMP280;64449;50.016;19.954;2022-10-31T10:18:36;99288.11;;;21.36
75811;BMP280;64449;50.016;19.954;2022-10-31T10:29:37;99276.28;;;21.94
75811;BMP280;64449;50.016;19.954;2022-10-31T10:32:20;99274.55;;;22.08
75811;BMP280;64449;50.016;19.954;2022-10-31T10:34:51;99271.27;;;22.11
75811;BMP280;64449;50.016;19.954;2022-10-31T10:37:38;99271.80;;;22.19
75811;BMP280;64449;50.016;19.954;2022-10-31T10:40:15;99271.39;;;22.33
75811;BMP280;64449;50.016;19.954;2022-10-31T10:42:43;99268.94;;;22.41
75811;BMP280;64449;50.016;19.954;2022-10-31T10:45:28;99270.09;;;22.42
75811;BMP280;64449;50.016;19.954;2022-10-31T10:48:36;99262.64;;;22.45
75811;BMP280;64449;50.016;19.954;2022-10-31T10:51:04;99262.28;;;22.55
75811;BMP280;64449;50.016;19.954;2022-10-31T10:56:49;99263.01;;;22.77
75811;BMP280;64449;50.016;19.954;2022-10-31T10:59:19;99263.52;;;22.89
75811;BMP280;64449;50.016;19.954;2022-10-31T11:01:48;99264.02;;;22.95
75811;BMP280;64449;50.016;19.954;2022-10-31T11:04:35;99257.37;;;23.03
75811;BMP280;64449;50.016;19.954;2022-10-31T11:07:07;99257.65;;;23.17
75811;BMP280;64449;50.016;19.954;2022-10-31T11:09:34;99254.02;;;23.23
75811;BMP280;64449;50.016;19.954;2022-10-31T11:12:09;99251.09;;;23.25
75811;BMP280;64449;50.016;19.954;2022-10-31T11:15:15;99250.64;;;23.28
75811;BMP280;64449;50.016;19.954;2022-10-31T11:17:42;99251.95;;;23.37
75811;BMP280;64449;50.016;19.954;2022-10-31T11:22:41;99250.04;;;23.59
75811;BMP280;64449;50.016;19.954;2022-10-31T11:27:45;99248.11;;;23.66
75811;BMP280;64449;50.016;19.954;2022-10-31T11:30:12;99247.24;;;23.64
75811;BMP280;64449;50.016;19.954;2022-10-31T11:32:47;99243.23;;;23.66
75811;BMP280;64449;50.016;19.954;2022-10-31T11:35:16;99241.71;;;23.73
75811;BMP280;64449;50.016;19.954;2022-10-31T11:37:44;99240.23;;;23.78
75811;BMP280;64449;50.016;19.954;2022-10-31T11:40:24;99235.11;;;23.80
75811;BMP280;64449;50.016;19.954;2022-10-31T11:42:52;99234.89;;;23.88
75811;BMP280;64449;50.016;19.954;2022-10-31T11:45:39;99236.59;;;23.98
75811;BMP280;64449;50.016;19.954;2022-10-31T11:48:19;99235.77;;;24.08
75811;BMP280;64449;50.016;19.954;2022-10-31T11:50:52;99234.98;;;24.18
75811;BMP280;64449;50.016;19.954;2022-10-31T11:53:25;99230.37;;;24.22
75811;BMP280;64449;50.016;19.954;2022-10-31T11:56:13;99230.88;;;24.23
75811;BMP280;64449;50.016;19.954;2022-10-31T11:58:39;99231.48;;;24.29
75811;BMP280;64449;50.016;19.954;2022-10-31T12:01:05;99231.46;;;24.30
75811;BMP280;64449;50.016;19.954;2022-10-31T12:03:43;99227.31;;;24.32
75811;BMP280;64449;50.016;19.954;2022-10-31T12:06:18;99223.69;;;24.37
75811;BMP280;64449;50.016;19.954;2022-10-31T12:08:45;99224.33;;;24.48
75811;BMP280;64449;50.016;19.954;2022-10-31T12:11:30;99221.86;;;24.50
75811;BMP280;64449;50.016;19.954;2022-10-31T12:16:36;99215.98;;;24.64
75811;BMP280;64449;50.016;19.954;2022-10-31T12:19:21;99216.04;;;24.73
75811;BMP280;64449;50.016;19.954;2022-10-31T12:22:14;99215.23;;;24.75
75811;BMP280;64449;50.016;19.954;2022-10-31T12:27:28;99212.02;;;24.82
75811;BMP280;64449;50.016;19.954;2022-10-31T12:30:18;99204.83;;;24.89
75811;BMP280;64449;50.016;19.954;2022-10-31T12:35:45;99199.98;;;24.89
75811;BMP280;64449;50.016;19.954;2022-10-31T12:53:02;99193.39;;;25.11
75811;BMP280;64449;50.016;19.954;2022-10-31T12:57:53;99189.24;;;25.09
75811;BMP280;64449;50.016;19.954;2022-10-31T13:00:21;99187.30;;;25.05
75811;BMP280;64449;50.016;19.954;2022-10-31T13:03:02;99188.45;;;25.02
75811;BMP280;64449;50.016;19.954;2022-10-31T13:05:39;99189.77;;;25.01
75811;BMP280;64449;50.016;19.954;2022-10-31T13:08:10;99188.34;;;25.00
75811;BMP280;64449;50.016;19.954;2022-10-31T13:11:30;99187.02;;;24.96
75811;BMP280;64449;50.016;19.954;2022-10-31T13:16:46;99188.16;;;24.93
75811;BMP280;64449;50.016;19.954;2022-10-31T13:19:23;99183.77;;;24.84
75811;BMP280;64449;50.016;19.954;2022-10-31T13:22:03;99184.88;;;24.78
75811;BMP280;64449;50.016;19.954;2022-10-31T13:24:35;99186.19;;;24.74
75811;BMP280;64449;50.016;19.954;2022-10-31T13:27:09;99183.79;;;24.69
75811;BMP280;64449;50.016;19.954;2022-10-31T13:29:48;99185.84;;;24.62
75811;BMP280;64449;50.016;19.954;2022-10-31T13:32:15;99184.09;;;24.62
75811;BMP280;64449;50.016;19.954;2022-10-31T13:34:44;99182.35;;;24.64
75811;BMP280;64449;50.016;19.954;2022-10-31T13:40:32;99181.45;;;24.68
75811;BMP280;64449;50.016;19.954;2022-10-31T13:43:18;99182.42;;;24.68
75811;BMP280;64449;50.016;19.954;2022-10-31T13:45:52;99185.15;;;24.68
75811;BMP280;64449;50.016;19.954;2022-10-31T13:51:02;99180.55;;;24.55
75811;BMP280;64449;50.016;19.954;2022-10-31T13:56:24;99177.63;;;24.37
75811;BMP280;64449;50.016;19.954;2022-10-31T13:59:16;99177.54;;;24.36
75811;BMP280;64449;50.016;19.954;2022-10-31T14:01:56;99177.31;;;24.36
75811;BMP280;64449;50.016;19.954;2022-10-31T14:04:28;99175.58;;;24.31
75811;BMP280;64449;50.016;19.954;2022-10-31T14:11:54;99177.59;;;24.05
75811;BMP280;64449;50.016;19.954;2022-10-31T14:14:23;99175.20;;;23.96
75811;BMP280;64449;50.016;19.954;2022-10-31T14:16:56;99175.02;;;23.90
75811;BMP280;64449;50.016;19.954;2022-10-31T14:19:22;99171.20;;;23.83
75811;BMP280;64449;50.016;19.954;2022-10-31T14:21:49;99170.45;;;23.80
75811;BMP280;64449;50.016;19.954;2022-10-31T14:24:31;99172.83;;;23.77
75811;BMP280;64449;50.016;19.954;2022-10-31T14:27:35;99169.70;;;23.72
75811;BMP280;64449;50.016;19.954;2022-10-31T14:29:47;99167.17;;;23.67
75811;BMP280;64449;50.016;19.954;2022-10-31T14:34:41;99166.59;;;23.64
75811;BMP280;64449;50.016;19.954;2022-10-31T14:40:27;99166.33;;;23.60
75811;BMP280;64449;50.016;19.954;2022-10-31T14:45:41;99167.23;;;23.50
75811;BMP280;64449;50.016;19.954;2022-10-31T14:51:03;99167.93;;;23.34
75811;BMP280;64449;50.016;19.954;2022-10-31T14:53:55;99165.58;;;23.22
75811;BMP280;64449;50.016;19.954;2022-10-31T14:56:32;99164.10;;;23.14
75811;BMP280;64449;50.016;19.954;2022-10-31T14:59:01;99160.61;;;23.04
75811;BMP280;64449;50.016;19.954;2022-10-31T15:01:35;99158.09;;;22.98
75811;BMP280;64449;50.016;19.954;2022-10-31T15:04:13;99159.42;;;22.92
75811;BMP280;64449;50.016;19.954;2022-10-31T15:07:11;99157.31;;;22.88
75811;BMP280;64449;50.016;19.954;2022-10-31T15:09:34;99158.71;;;22.80
75811;BMP280;64449;50.016;19.954;2022-10-31T15:12:01;99156.37;;;22.72
75811;BMP280;64449;50.016;19.954;2022-10-31T15:14:41;99158.58;;;22.66
75811;BMP280;64449;50.016;19.954;2022-10-31T15:17:10;99157.90;;;22.60
75811;BMP280;64449;50.016;19.954;2022-10-31T15:19:37;99156.38;;;22.54
75811;BMP280;64449;50.016;19.954;2022-10-31T15:22:03;99157.98;;;22.49
75811;BMP280;64449;50.016;19.954;2022-10-31T15:24:36;99157.71;;;22.43
75811;BMP280;64449;50.016;19.954;2022-10-31T15:27:03;99159.73;;;22.35
75811;BMP280;64449;50.016;19.954;2022-10-31T15:29:28;99160.86;;;22.30
75811;BMP280;64449;50.016;19.954;2022-10-31T15:32:18;99159.32;;;22.25
75811;BMP280;64449;50.016;19.954;2022-10-31T15:34:44;99159.37;;;22.19
75811;BMP280;64449;50.016;19.954;2022-10-31T15:37:17;99158.44;;;22.12
75811;BMP280;64449;50.016;19.954;2022-10-31T15:39:44;99160.23;;;22.05
75811;BMP280;64449;50.016;19.954;2022-10-31T15:42:27;99163.02;;;22.00
75811;BMP280;64449;50.016;19.954;2022-10-31T15:45:01;99164.30;;;21.96
75811;BMP280;64449;50.016;19.954;2022-10-31T15:47:28;99165.31;;;21.89
75811;BMP280;64449;50.016;19.954;2022-10-31T15:49:57;99173.03;;;21.81
75811;BMP280;64449;50.016;19.954;2022-10-31T15:52:43;99171.38;;;21.73
75811;BMP280;64449;50.016;19.954;2022-10-31T15:57:47;99175.76;;;21.62
75811;BMP280;64449;50.016;19.954;2022-10-31T16:00:23;99174.74;;;21.58
75811;BMP280;64449;50.016;19.954;2022-10-31T16:02:48;99176.41;;;21.51